Terminal Aerodrome Forecast
Issued by NWS

Home | Current Version | Previous Version | Text Only | Print | Product List | Glossary On
Versions: 1 2 3 4 5 6 7 8 9 10 11 12
491
FTUS46 KSTO 241120
TAFSCK
TAF
KSCK 241120Z 2412/2512 34008KT P6SM SKC
     FM250300 30013G19KT P6SM SCT250
     FM250600 32009KT P6SM SCT250=

USA.gov is the U.S. government's official web portal to all federal, state and local government web resources and services.